createdAt,value
2022-10-31T00:01:59.198Z,9.78
2022-10-31T00:06:59.369Z,9.76
2022-10-31T00:11:59.155Z,9.75
2022-10-31T00:16:59.100Z,9.73
2022-10-31T00:21:59.451Z,9.67
2022-10-31T00:26:59.060Z,9.56
2022-10-31T00:31:59.084Z,9.51
2022-10-31T00:36:59.196Z,9.56
2022-10-31T00:41:59.038Z,9.50
2022-10-31T00:46:59.097Z,9.42
2022-10-31T00:51:59.327Z,9.43
2022-10-31T00:56:59.052Z,9.34
2022-10-31T01:01:59.257Z,9.23
2022-10-31T01:06:59.125Z,9.24
2022-10-31T01:11:59.537Z,9.07
2022-10-31T01:16:59.065Z,9.08
2022-10-31T01:21:59.243Z,8.95
2022-10-31T01:26:59.019Z,8.90
2022-10-31T01:31:59.079Z,8.88
2022-10-31T01:36:59.325Z,8.88
2022-10-31T01:41:59.231Z,8.78
2022-10-31T01:47:03.991Z,8.82
2022-10-31T01:52:03.972Z,8.80
2022-10-31T01:57:00.362Z,8.71
2022-10-31T02:01:59.195Z,8.61
2022-10-31T02:07:03.916Z,8.44
2022-10-31T02:12:00.003Z,8.52
2022-10-31T02:16:58.958Z,8.49
2022-10-31T02:22:05.251Z,8.45
2022-10-31T02:27:09.842Z,8.42
2022-10-31T02:32:07.305Z,8.33
2022-10-31T02:37:06.927Z,8.32
2022-10-31T02:42:07.910Z,8.37
2022-10-31T02:47:03.968Z,8.37
2022-10-31T02:51:59.151Z,8.32
2022-10-31T02:57:03.419Z,8.39
2022-10-31T03:02:16.223Z,8.39
2022-10-31T03:07:08.084Z,8.37
2022-10-31T03:12:07.312Z,8.41
2022-10-31T03:17:01.830Z,8.38
2022-10-31T03:22:03.666Z,8.29
2022-10-31T03:27:01.684Z,8.24
2022-10-31T03:32:04.486Z,8.14
2022-10-31T03:37:03.481Z,8.13
2022-10-31T03:42:05.011Z,7.89
2022-10-31T03:47:00.519Z,7.89
2022-10-31T03:52:03.691Z,7.91
2022-10-31T03:57:06.778Z,7.83
2022-10-31T04:02:06.392Z,7.87
2022-10-31T04:07:01.797Z,7.93
2022-10-31T04:12:00.968Z,7.90
2022-10-31T04:17:02.168Z,7.85
2022-10-31T04:21:58.964Z,7.91
2022-10-31T04:26:58.914Z,7.91
2022-10-31T04:31:59.240Z,7.87
2022-10-31T04:36:58.821Z,7.89
2022-10-31T04:41:59.009Z,7.91
2022-10-31T04:46:58.896Z,7.86
2022-10-31T04:51:59.008Z,7.75
2022-10-31T04:56:59.174Z,7.67
2022-10-31T05:01:59.101Z,7.65
2022-10-31T05:06:59.031Z,7.56
2022-10-31T05:11:59.169Z,7.45
2022-10-31T05:16:58.962Z,7.42
2022-10-31T05:21:59.881Z,7.45
2022-10-31T05:26:59.121Z,7.40
2022-10-31T05:31:59.147Z,7.26
2022-10-31T05:36:58.784Z,7.22
2022-10-31T05:41:59.185Z,7.12
2022-10-31T05:46:58.806Z,7.16
2022-10-31T05:52:01.330Z,7.17
2022-10-31T05:56:58.789Z,7.21
2022-10-31T06:01:58.997Z,7.28
2022-10-31T06:06:59.124Z,7.36
2022-10-31T06:11:58.775Z,7.41
2022-10-31T06:16:58.905Z,7.52
2022-10-31T06:21:59.137Z,7.66
2022-10-31T06:26:58.759Z,7.86
2022-10-31T06:31:59.008Z,8.30
2022-10-31T06:36:59.201Z,8.42
2022-10-31T06:41:58.905Z,8.59
2022-10-31T06:46:59.139Z,8.81
2022-10-31T06:51:59.227Z,8.96
2022-10-31T06:56:58.792Z,9.02
2022-10-31T07:01:59.157Z,9.18
2022-10-31T07:06:58.973Z,9.18
2022-10-31T07:11:58.814Z,9.07
2022-10-31T07:16:58.877Z,8.88
2022-10-31T07:21:59.212Z,8.92
2022-10-31T07:31:58.890Z,9.25
2022-10-31T07:36:59.211Z,9.38
2022-10-31T07:41:59.014Z,9.42
2022-10-31T07:46:58.753Z,9.37
2022-10-31T07:51:58.989Z,9.48
2022-10-31T07:56:58.707Z,9.64
2022-10-31T08:01:58.826Z,9.90
2022-10-31T08:06:59.218Z,10.36
2022-10-31T08:11:58.835Z,11.93
2022-10-31T08:16:58.876Z,16.10
2022-10-31T08:21:59.525Z,20.01
2022-10-31T08:26:58.665Z,24.91
2022-10-31T08:31:58.919Z,28.54
2022-10-31T08:36:58.840Z,30.70
2022-10-31T08:41:58.770Z,32.55
2022-10-31T08:46:58.874Z,33.93
2022-10-31T08:51:59.021Z,34.83
2022-10-31T08:56:58.659Z,35.77
2022-10-31T09:01:59.114Z,35.99
2022-10-31T09:07:20.293Z,36.92
2022-10-31T09:11:59.219Z,37.23
2022-10-31T09:16:58.887Z,36.84
2022-10-31T09:21:59.205Z,36.77
2022-10-31T09:26:58.868Z,36.39
2022-10-31T09:31:58.859Z,38.10
2022-10-31T09:36:59.102Z,38.86
2022-10-31T09:42:18.484Z,39.07
2022-10-31T09:47:05.506Z,39.90
2022-10-31T09:52:03.398Z,39.93
2022-10-31T09:57:00.302Z,40.42
2022-10-31T10:02:03.122Z,38.98
2022-10-31T10:07:02.974Z,39.55
2022-10-31T10:12:06.990Z,39.87
2022-10-31T10:17:08.619Z,39.06
2022-10-31T10:22:09.149Z,35.95
2022-10-31T10:27:05.703Z,29.85
2022-10-31T10:32:06.231Z,27.91
2022-10-31T10:37:04.565Z,26.32
2022-10-31T10:42:09.629Z,24.74
2022-10-31T10:47:10.314Z,23.72
2022-10-31T10:52:19.925Z,23.33
2022-10-31T10:57:11.866Z,22.62
2022-10-31T11:01:59.506Z,22.29
2022-10-31T11:07:01.463Z,22.14
2022-10-31T11:11:59.771Z,21.84
2022-10-31T11:17:10.252Z,21.65
2022-10-31T11:22:06.225Z,21.23
2022-10-31T11:27:13.995Z,20.88
2022-10-31T11:32:00.664Z,20.88
2022-10-31T11:37:05.032Z,20.75
2022-10-31T11:42:08.515Z,20.57
2022-10-31T11:47:01.259Z,20.69
2022-10-31T11:52:02.057Z,20.51
2022-10-31T11:56:58.823Z,20.55
2022-10-31T12:02:00.562Z,20.43
2022-10-31T12:06:59.313Z,20.40
2022-10-31T12:12:10.616Z,20.18
2022-10-31T12:17:05.717Z,20.26
2022-10-31T12:22:05.197Z,20.10
2022-10-31T12:27:10.460Z,20.04
2022-10-31T12:32:15.226Z,19.76
2022-10-31T12:37:06.226Z,19.84
2022-10-31T12:42:10.715Z,19.79
2022-10-31T12:47:12.379Z,19.67
2022-10-31T12:52:11.566Z,19.70
2022-10-31T12:57:07.818Z,19.62
2022-10-31T13:02:04.023Z,19.52
2022-10-31T13:07:03.153Z,19.33
2022-10-31T13:12:04.879Z,19.10
2022-10-31T13:17:00.959Z,18.94
2022-10-31T13:22:06.784Z,18.70
2022-10-31T13:27:01.318Z,18.40
2022-10-31T13:32:00.243Z,18.14
2022-10-31T13:37:06.602Z,18.02
2022-10-31T13:42:04.846Z,17.79
2022-10-31T13:46:58.958Z,17.74
2022-10-31T13:52:13.679Z,17.52
2022-10-31T13:56:59.222Z,17.33
2022-10-31T14:02:01.398Z,17.28
2022-10-31T14:07:06.678Z,17.22
2022-10-31T14:12:03.927Z,17.14
2022-10-31T14:16:59.551Z,17.01
2022-10-31T14:21:59.252Z,16.90
2022-10-31T14:27:01.575Z,16.75
2022-10-31T14:32:07.730Z,16.59
2022-10-31T14:37:08.841Z,16.41
2022-10-31T14:42:11.405Z,16.24
2022-10-31T14:47:08.469Z,16.13
2022-10-31T14:51:59.251Z,16.02
2022-10-31T14:57:02.926Z,15.92
2022-10-31T15:02:01.744Z,15.75
2022-10-31T15:07:04.599Z,15.50
2022-10-31T15:11:58.989Z,15.34
2022-10-31T15:17:02.937Z,15.21
2022-10-31T15:22:00.601Z,14.90
2022-10-31T15:27:03.820Z,14.65
2022-10-31T15:32:01.347Z,14.57
2022-10-31T15:33:24.027Z,14.36
2022-10-31T15:36:58.721Z,14.36
2022-10-31T15:41:59.829Z,14.20
2022-10-31T15:47:01.633Z,14.03
2022-10-31T15:52:04.003Z,13.81
2022-10-31T15:56:59.104Z,13.72
2022-10-31T16:02:03.677Z,13.63
2022-10-31T16:07:01.903Z,13.56
2022-10-31T16:11:59.484Z,13.44
2022-10-31T16:17:01.555Z,13.35
2022-10-31T16:22:05.154Z,13.25
2022-10-31T16:27:03.595Z,13.08
2022-10-31T16:31:59.487Z,13.02
2022-10-31T16:36:58.887Z,12.87
2022-10-31T16:41:58.985Z,12.77
2022-10-31T16:47:09.835Z,12.75
2022-10-31T16:51:58.605Z,12.71
2022-10-31T16:56:59.910Z,12.76
2022-10-31T17:01:59.913Z,12.80
2022-10-31T17:06:58.946Z,12.62
2022-10-31T17:11:59.397Z,12.61
2022-10-31T17:16:58.675Z,12.62
2022-10-31T17:21:58.674Z,12.72
2022-10-31T17:26:58.898Z,12.75
2022-10-31T17:31:59.400Z,12.86
2022-10-31T17:36:58.523Z,12.75
2022-10-31T17:41:59.161Z,12.77
2022-10-31T17:46:58.506Z,12.72
2022-10-31T17:51:58.635Z,12.76
2022-10-31T17:56:58.656Z,12.75
2022-10-31T18:01:59.595Z,12.65
2022-10-31T18:06:58.538Z,12.67
2022-10-31T18:11:59.067Z,12.71
2022-10-31T18:16:58.501Z,12.77
2022-10-31T18:21:58.693Z,12.73
2022-10-31T18:26:58.901Z,12.75
2022-10-31T18:31:58.608Z,12.77
2022-10-31T18:36:58.651Z,12.82
2022-10-31T18:41:58.958Z,12.81
2022-10-31T18:46:58.465Z,12.81
2022-10-31T18:51:58.853Z,12.76
2022-10-31T18:56:58.954Z,12.72
2022-10-31T19:01:58.617Z,12.71
2022-10-31T19:06:58.835Z,12.69
2022-10-31T19:11:59.214Z,12.68
2022-10-31T19:17:02.141Z,12.71
2022-10-31T19:21:58.490Z,12.66
2022-10-31T19:26:59.705Z,12.68
2022-10-31T19:31:58.447Z,12.65
2022-10-31T19:36:58.512Z,12.70
2022-10-31T19:41:59.412Z,12.70
2022-10-31T19:46:58.457Z,12.70
2022-10-31T19:51:58.648Z,12.77
2022-10-31T19:56:58.830Z,12.74
2022-10-31T20:01:58.580Z,12.74
2022-10-31T20:06:58.568Z,12.76
2022-10-31T20:11:58.717Z,12.81
2022-10-31T20:16:58.395Z,12.80
2022-10-31T20:21:58.567Z,12.73
2022-10-31T20:27:00.169Z,12.72
2022-10-31T20:31:58.657Z,12.81
2022-10-31T20:36:58.584Z,12.81
2022-10-31T20:41:58.919Z,12.85
2022-10-31T20:46:58.517Z,12.78
2022-10-31T20:51:58.639Z,12.69
2022-10-31T20:56:58.939Z,12.78
2022-10-31T21:01:58.693Z,12.82
2022-10-31T21:06:58.476Z,12.83
2022-10-31T21:11:58.961Z,12.80
2022-10-31T21:16:58.517Z,12.90
2022-10-31T21:21:58.597Z,12.88
2022-10-31T21:26:59.079Z,12.88
2022-10-31T21:31:58.453Z,12.93
2022-10-31T21:36:58.419Z,12.93
2022-10-31T21:41:58.816Z,12.96
2022-10-31T21:46:58.373Z,13.00
2022-10-31T21:51:58.644Z,13.04
2022-10-31T21:57:00.234Z,13.07
2022-10-31T22:01:59.661Z,13.03
2022-10-31T22:06:58.377Z,13.05
2022-10-31T22:12:00.316Z,13.08
2022-10-31T22:16:58.349Z,13.14
2022-10-31T22:21:58.428Z,13.09
2022-10-31T22:26:58.987Z,13.07
2022-10-31T22:32:00.597Z,13.03
2022-10-31T22:36:58.341Z,13.07
2022-10-31T22:41:58.651Z,13.07
2022-10-31T22:46:58.286Z,13.04
2022-10-31T22:52:02.132Z,13.03
2022-10-31T22:56:58.516Z,12.97
2022-10-31T23:01:58.502Z,13.02
2022-10-31T23:07:00.189Z,13.00
2022-10-31T23:16:59.627Z,12.85
2022-10-31T23:22:01.167Z,12.93
2022-10-31T23:27:09.857Z,12.93
2022-10-31T23:31:58.975Z,12.94
2022-10-31T23:36:58.420Z,12.97
2022-10-31T23:41:58.661Z,12.98
2022-10-31T23:46:59.461Z,12.94
2022-10-31T23:51:58.562Z,12.90
2022-10-31T23:56:59.461Z,12.72
